sensor_id;sensor_type;location;lat;lon;timestamp;P1;durP1;ratioP1;P2;durP2;ratioP2
54897;SDS011;40800;52.704;6.398;2024-03-07T00:00:10;53.28;;;39.58;;
54897;SDS011;40800;52.704;6.398;2024-03-07T00:02:41;58.50;;;41.30;;
54897;SDS011;40800;52.704;6.398;2024-03-07T00:05:11;55.92;;;40.20;;
54897;SDS011;40800;52.704;6.398;2024-03-07T00:07:39;52.13;;;39.33;;
54897;SDS011;40800;52.704;6.398;2024-03-07T00:10:06;57.90;;;41.58;;
54897;SDS011;40800;52.704;6.398;2024-03-07T00:12:35;58.13;;;41.33;;
54897;SDS011;40800;52.704;6.398;2024-03-07T00:15:02;57.28;;;40.38;;
54897;SDS011;40800;52.704;6.398;2024-03-07T00:17:28;56.53;;;40.33;;
54897;SDS011;40800;52.704;6.398;2024-03-07T00:19:54;61.42;;;42.33;;
54897;SDS011;40800;52.704;6.398;2024-03-07T00:22:20;62.42;;;41.67;;
54897;SDS011;40800;52.704;6.398;2024-03-07T00:24:45;54.45;;;40.35;;
54897;SDS011;40800;52.704;6.398;2024-03-07T00:27:12;58.38;;;40.90;;
54897;SDS011;40800;52.704;6.398;2024-03-07T00:32:05;54.65;;;40.85;;
54897;SDS011;40800;52.704;6.398;2024-03-07T00:34:32;57.22;;;42.85;;
54897;SDS011;40800;52.704;6.398;2024-03-07T00:36:58;54.40;;;40.88;;
54897;SDS011;40800;52.704;6.398;2024-03-07T00:39:24;61.65;;;43.40;;
54897;SDS011;40800;52.704;6.398;2024-03-07T00:41:50;58.97;;;43.13;;
54897;SDS011;40800;52.704;6.398;2024-03-07T00:44:16;56.60;;;41.60;;
54897;SDS011;40800;52.704;6.398;2024-03-07T00:46:42;56.90;;;42.47;;
54897;SDS011;40800;52.704;6.398;2024-03-07T00:49:08;56.83;;;39.85;;
54897;SDS011;40800;52.704;6.398;2024-03-07T00:51:34;57.45;;;42.15;;
54897;SDS011;40800;52.704;6.398;2024-03-07T00:54:00;63.13;;;43.83;;
54897;SDS011;40800;52.704;6.398;2024-03-07T00:56:26;58.42;;;42.50;;
54897;SDS011;40800;52.704;6.398;2024-03-07T00:58:51;58.22;;;43.67;;
54897;SDS011;40800;52.704;6.398;2024-03-07T01:01:17;57.78;;;44.08;;
54897;SDS011;40800;52.704;6.398;2024-03-07T01:03:46;57.83;;;42.97;;
54897;SDS011;40800;52.704;6.398;2024-03-07T01:06:11;55.63;;;42.47;;
54897;SDS011;40800;52.704;6.398;2024-03-07T01:08:38;57.83;;;42.55;;
54897;SDS011;40800;52.704;6.398;2024-03-07T01:11:04;57.33;;;43.33;;
54897;SDS011;40800;52.704;6.398;2024-03-07T01:13:39;62.50;;;44.28;;
54897;SDS011;40800;52.704;6.398;2024-03-07T01:16:05;61.00;;;43.83;;
54897;SDS011;40800;52.704;6.398;2024-03-07T01:18:31;59.47;;;43.13;;
54897;SDS011;40800;52.704;6.398;2024-03-07T01:21:03;58.85;;;43.42;;
54897;SDS011;40800;52.704;6.398;2024-03-07T01:23:30;57.40;;;43.70;;
54897;SDS011;40800;52.704;6.398;2024-03-07T01:25:56;59.72;;;44.97;;
54897;SDS011;40800;52.704;6.398;2024-03-07T01:30:49;59.92;;;44.17;;
54897;SDS011;40800;52.704;6.398;2024-03-07T01:33:15;57.17;;;43.97;;
54897;SDS011;40800;52.704;6.398;2024-03-07T01:35:41;54.25;;;41.42;;
54897;SDS011;40800;52.704;6.398;2024-03-07T01:38:07;52.88;;;41.15;;
54897;SDS011;40800;52.704;6.398;2024-03-07T01:40:35;55.40;;;41.25;;
54897;SDS011;40800;52.704;6.398;2024-03-07T01:43:02;53.90;;;39.95;;
54897;SDS011;40800;52.704;6.398;2024-03-07T01:45:28;50.03;;;38.72;;
54897;SDS011;40800;52.704;6.398;2024-03-07T01:47:53;51.33;;;39.00;;
54897;SDS011;40800;52.704;6.398;2024-03-07T01:50:20;49.22;;;39.42;;
54897;SDS011;40800;52.704;6.398;2024-03-07T01:52:46;49.25;;;40.00;;
54897;SDS011;40800;52.704;6.398;2024-03-07T01:55:15;47.60;;;36.97;;
54897;SDS011;40800;52.704;6.398;2024-03-07T01:57:41;49.30;;;39.03;;
54897;SDS011;40800;52.704;6.398;2024-03-07T02:00:07;43.67;;;36.90;;
54897;SDS011;40800;52.704;6.398;2024-03-07T02:02:34;47.10;;;38.50;;
54897;SDS011;40800;52.704;6.398;2024-03-07T02:05:00;47.47;;;38.15;;
54897;SDS011;40800;52.704;6.398;2024-03-07T02:07:26;48.95;;;39.33;;
54897;SDS011;40800;52.704;6.398;2024-03-07T02:10:04;45.22;;;37.35;;
54897;SDS011;40800;52.704;6.398;2024-03-07T02:12:30;45.65;;;37.10;;
54897;SDS011;40800;52.704;6.398;2024-03-07T02:14:57;43.30;;;34.97;;
54897;SDS011;40800;52.704;6.398;2024-03-07T02:17:26;44.35;;;36.60;;
54897;SDS011;40800;52.704;6.398;2024-03-07T02:19:52;45.05;;;36.28;;
54897;SDS011;40800;52.704;6.398;2024-03-07T02:22:18;43.70;;;35.05;;
54897;SDS011;40800;52.704;6.398;2024-03-07T02:24:44;43.17;;;36.33;;
54897;SDS011;40800;52.704;6.398;2024-03-07T02:27:11;45.70;;;35.13;;
54897;SDS011;40800;52.704;6.398;2024-03-07T02:29:37;43.15;;;35.22;;
54897;SDS011;40800;52.704;6.398;2024-03-07T02:32:03;44.28;;;36.05;;
54897;SDS011;40800;52.704;6.398;2024-03-07T02:34:29;42.45;;;36.35;;
54897;SDS011;40800;52.704;6.398;2024-03-07T02:36:55;43.17;;;34.72;;
54897;SDS011;40800;52.704;6.398;2024-03-07T02:39:20;40.78;;;34.60;;
54897;SDS011;40800;52.704;6.398;2024-03-07T02:41:47;41.13;;;34.17;;
54897;SDS011;40800;52.704;6.398;2024-03-07T02:44:15;41.88;;;34.80;;
54897;SDS011;40800;52.704;6.398;2024-03-07T02:46:41;40.80;;;36.08;;
54897;SDS011;40800;52.704;6.398;2024-03-07T02:49:08;39.50;;;34.30;;
54897;SDS011;40800;52.704;6.398;2024-03-07T02:51:34;40.67;;;33.97;;
54897;SDS011;40800;52.704;6.398;2024-03-07T02:54:00;40.05;;;34.08;;
54897;SDS011;40800;52.704;6.398;2024-03-07T02:56:28;39.53;;;33.75;;
54897;SDS011;40800;52.704;6.398;2024-03-07T02:58:53;43.05;;;34.08;;
54897;SDS011;40800;52.704;6.398;2024-03-07T03:01:19;36.83;;;31.92;;
54897;SDS011;40800;52.704;6.398;2024-03-07T03:03:45;37.97;;;32.00;;
54897;SDS011;40800;52.704;6.398;2024-03-07T03:06:10;39.47;;;33.70;;
54897;SDS011;40800;52.704;6.398;2024-03-07T03:08:36;39.85;;;33.42;;
54897;SDS011;40800;52.704;6.398;2024-03-07T03:11:03;38.33;;;33.13;;
54897;SDS011;40800;52.704;6.398;2024-03-07T03:13:28;39.70;;;31.92;;
54897;SDS011;40800;52.704;6.398;2024-03-07T03:15:54;39.63;;;32.95;;
54897;SDS011;40800;52.704;6.398;2024-03-07T03:18:21;37.17;;;33.17;;
54897;SDS011;40800;52.704;6.398;2024-03-07T03:20:47;38.10;;;32.45;;
54897;SDS011;40800;52.704;6.398;2024-03-07T03:23:13;36.67;;;32.70;;
54897;SDS011;40800;52.704;6.398;2024-03-07T03:25:39;40.43;;;33.97;;
54897;SDS011;40800;52.704;6.398;2024-03-07T03:28:06;39.55;;;32.85;;
54897;SDS011;40800;52.704;6.398;2024-03-07T03:30:34;38.92;;;33.03;;
54897;SDS011;40800;52.704;6.398;2024-03-07T03:33:04;36.65;;;31.52;;
54897;SDS011;40800;52.704;6.398;2024-03-07T03:35:31;38.55;;;32.53;;
54897;SDS011;40800;52.704;6.398;2024-03-07T03:37:57;37.88;;;33.13;;
54897;SDS011;40800;52.704;6.398;2024-03-07T03:40:23;38.67;;;32.28;;
54897;SDS011;40800;52.704;6.398;2024-03-07T03:42:49;39.17;;;32.20;;
54897;SDS011;40800;52.704;6.398;2024-03-07T03:45:14;37.38;;;31.48;;
54897;SDS011;40800;52.704;6.398;2024-03-07T03:47:41;38.92;;;32.45;;
54897;SDS011;40800;52.704;6.398;2024-03-07T03:50:08;39.53;;;32.47;;
54897;SDS011;40800;52.704;6.398;2024-03-07T03:52:36;37.88;;;31.83;;
54897;SDS011;40800;52.704;6.398;2024-03-07T03:55:02;36.40;;;31.37;;
54897;SDS011;40800;52.704;6.398;2024-03-07T03:57:32;38.22;;;31.65;;
54897;SDS011;40800;52.704;6.398;2024-03-07T03:59:58;37.97;;;33.20;;
54897;SDS011;40800;52.704;6.398;2024-03-07T04:02:24;35.35;;;30.27;;
54897;SDS011;40800;52.704;6.398;2024-03-07T04:04:51;35.05;;;31.05;;
54897;SDS011;40800;52.704;6.398;2024-03-07T04:07:18;36.38;;;30.20;;
54897;SDS011;40800;52.704;6.398;2024-03-07T04:09:44;39.22;;;30.85;;
54897;SDS011;40800;52.704;6.398;2024-03-07T04:12:10;36.72;;;30.40;;
54897;SDS011;40800;52.704;6.398;2024-03-07T04:14:37;33.27;;;28.53;;
54897;SDS011;40800;52.704;6.398;2024-03-07T04:17:06;36.38;;;30.25;;
54897;SDS011;40800;52.704;6.398;2024-03-07T04:19:36;34.78;;;30.42;;
54897;SDS011;40800;52.704;6.398;2024-03-07T04:22:03;37.28;;;31.10;;
54897;SDS011;40800;52.704;6.398;2024-03-07T04:24:29;35.42;;;31.55;;
54897;SDS011;40800;52.704;6.398;2024-03-07T04:26:59;34.63;;;30.50;;
54897;SDS011;40800;52.704;6.398;2024-03-07T04:29:26;34.95;;;31.05;;
54897;SDS011;40800;52.704;6.398;2024-03-07T04:31:52;35.92;;;30.67;;
54897;SDS011;40800;52.704;6.398;2024-03-07T04:34:18;37.15;;;31.60;;
54897;SDS011;40800;52.704;6.398;2024-03-07T04:36:44;35.45;;;30.42;;
54897;SDS011;40800;52.704;6.398;2024-03-07T04:39:10;35.60;;;30.45;;
54897;SDS011;40800;52.704;6.398;2024-03-07T04:41:53;37.17;;;31.33;;
54897;SDS011;40800;52.704;6.398;2024-03-07T04:44:19;35.95;;;30.92;;
54897;SDS011;40800;52.704;6.398;2024-03-07T04:46:50;38.78;;;32.15;;
54897;SDS011;40800;52.704;6.398;2024-03-07T04:49:20;37.47;;;31.63;;
54897;SDS011;40800;52.704;6.398;2024-03-07T04:51:48;40.15;;;31.33;;
54897;SDS011;40800;52.704;6.398;2024-03-07T04:54:14;34.85;;;30.65;;
54897;SDS011;40800;52.704;6.398;2024-03-07T04:56:40;37.35;;;31.83;;
54897;SDS011;40800;52.704;6.398;2024-03-07T04:59:06;41.42;;;32.95;;
54897;SDS011;40800;52.704;6.398;2024-03-07T05:01:31;37.20;;;31.23;;
54897;SDS011;40800;52.704;6.398;2024-03-07T05:03:57;40.55;;;32.17;;
54897;SDS011;40800;52.704;6.398;2024-03-07T05:06:23;39.53;;;31.60;;
54897;SDS011;40800;52.704;6.398;2024-03-07T05:08:48;36.47;;;31.08;;
54897;SDS011;40800;52.704;6.398;2024-03-07T05:11:14;39.65;;;31.90;;
54897;SDS011;40800;52.704;6.398;2024-03-07T05:13:40;37.97;;;32.60;;
54897;SDS011;40800;52.704;6.398;2024-03-07T05:16:07;40.22;;;33.92;;
54897;SDS011;40800;52.704;6.398;2024-03-07T05:18:33;38.55;;;31.50;;
54897;SDS011;40800;52.704;6.398;2024-03-07T05:20:59;37.08;;;31.08;;
54897;SDS011;40800;52.704;6.398;2024-03-07T05:23:44;38.58;;;31.38;;
54897;SDS011;40800;52.704;6.398;2024-03-07T05:26:10;41.08;;;32.50;;
54897;SDS011;40800;52.704;6.398;2024-03-07T05:28:35;41.92;;;31.95;;
54897;SDS011;40800;52.704;6.398;2024-03-07T05:31:01;40.95;;;31.65;;
54897;SDS011;40800;52.704;6.398;2024-03-07T05:33:29;38.58;;;32.20;;
54897;SDS011;40800;52.704;6.398;2024-03-07T05:35:54;38.08;;;29.95;;
54897;SDS011;40800;52.704;6.398;2024-03-07T05:38:38;40.88;;;32.67;;
54897;SDS011;40800;52.704;6.398;2024-03-07T05:41:04;38.97;;;31.43;;
54897;SDS011;40800;52.704;6.398;2024-03-07T05:43:30;38.78;;;33.42;;
54897;SDS011;40800;52.704;6.398;2024-03-07T05:45:57;39.95;;;33.15;;
54897;SDS011;40800;52.704;6.398;2024-03-07T05:48:25;39.22;;;31.42;;
54897;SDS011;40800;52.704;6.398;2024-03-07T05:50:51;41.38;;;33.22;;
54897;SDS011;40800;52.704;6.398;2024-03-07T05:53:17;37.77;;;31.47;;
54897;SDS011;40800;52.704;6.398;2024-03-07T05:55:43;39.05;;;32.38;;
54897;SDS011;40800;52.704;6.398;2024-03-07T05:58:09;39.78;;;33.08;;
54897;SDS011;40800;52.704;6.398;2024-03-07T06:00:35;36.15;;;31.00;;
54897;SDS011;40800;52.704;6.398;2024-03-07T06:03:03;37.40;;;31.77;;
54897;SDS011;40800;52.704;6.398;2024-03-07T06:05:30;36.60;;;31.20;;
54897;SDS011;40800;52.704;6.398;2024-03-07T06:07:56;36.58;;;31.17;;
54897;SDS011;40800;52.704;6.398;2024-03-07T06:10:21;37.75;;;31.55;;
54897;SDS011;40800;52.704;6.398;2024-03-07T06:12:51;42.42;;;33.45;;
54897;SDS011;40800;52.704;6.398;2024-03-07T06:15:17;40.00;;;32.20;;
54897;SDS011;40800;52.704;6.398;2024-03-07T06:17:43;41.13;;;32.33;;
54897;SDS011;40800;52.704;6.398;2024-03-07T06:20:12;37.35;;;31.83;;
54897;SDS011;40800;52.704;6.398;2024-03-07T06:22:48;37.67;;;32.72;;
54897;SDS011;40800;52.704;6.398;2024-03-07T06:25:16;40.67;;;33.38;;
54897;SDS011;40800;52.704;6.398;2024-03-07T06:27:48;36.67;;;31.30;;
54897;SDS011;40800;52.704;6.398;2024-03-07T06:30:17;35.25;;;31.45;;
54897;SDS011;40800;52.704;6.398;2024-03-07T06:32:45;36.97;;;31.23;;
54897;SDS011;40800;52.704;6.398;2024-03-07T06:35:11;38.13;;;31.80;;
54897;SDS011;40800;52.704;6.398;2024-03-07T06:37:37;38.63;;;31.52;;
54897;SDS011;40800;52.704;6.398;2024-03-07T06:40:03;38.03;;;33.10;;
54897;SDS011;40800;52.704;6.398;2024-03-07T06:42:34;37.70;;;31.33;;
54897;SDS011;40800;52.704;6.398;2024-03-07T06:45:02;36.95;;;31.70;;
54897;SDS011;40800;52.704;6.398;2024-03-07T06:47:29;34.10;;;30.17;;
54897;SDS011;40800;52.704;6.398;2024-03-07T06:49:55;35.80;;;31.23;;
54897;SDS011;40800;52.704;6.398;2024-03-07T06:52:21;38.83;;;32.33;;
54897;SDS011;40800;52.704;6.398;2024-03-07T06:54:47;35.97;;;31.77;;
54897;SDS011;40800;52.704;6.398;2024-03-07T06:57:12;35.10;;;31.05;;
54897;SDS011;40800;52.704;6.398;2024-03-07T06:59:38;38.08;;;31.67;;
54897;SDS011;40800;52.704;6.398;2024-03-07T07:02:04;34.72;;;30.73;;
54897;SDS011;40800;52.704;6.398;2024-03-07T07:04:29;36.15;;;31.33;;
54897;SDS011;40800;52.704;6.398;2024-03-07T07:07:06;37.70;;;31.85;;
54897;SDS011;40800;52.704;6.398;2024-03-07T07:09:35;35.42;;;30.58;;
54897;SDS011;40800;52.704;6.398;2024-03-07T07:12:01;38.30;;;32.90;;
54897;SDS011;40800;52.704;6.398;2024-03-07T07:14:27;34.72;;;30.95;;
54897;SDS011;40800;52.704;6.398;2024-03-07T07:16:53;37.22;;;31.88;;
54897;SDS011;40800;52.704;6.398;2024-03-07T07:19:19;36.03;;;31.95;;
54897;SDS011;40800;52.704;6.398;2024-03-07T07:21:44;37.00;;;32.25;;
54897;SDS011;40800;52.704;6.398;2024-03-07T07:24:12;38.67;;;32.25;;
54897;SDS011;40800;52.704;6.398;2024-03-07T07:26:37;36.30;;;31.85;;
54897;SDS011;40800;52.704;6.398;2024-03-07T07:29:04;44.63;;;32.53;;
54897;SDS011;40800;52.704;6.398;2024-03-07T07:31:29;39.15;;;32.03;;
54897;SDS011;40800;52.704;6.398;2024-03-07T07:33:57;36.50;;;32.45;;
54897;SDS011;40800;52.704;6.398;2024-03-07T07:36:23;37.83;;;31.88;;
54897;SDS011;40800;52.704;6.398;2024-03-07T07:38:48;35.83;;;32.03;;
54897;SDS011;40800;52.704;6.398;2024-03-07T07:41:14;36.25;;;32.35;;
54897;SDS011;40800;52.704;6.398;2024-03-07T07:43:40;35.95;;;31.80;;
54897;SDS011;40800;52.704;6.398;2024-03-07T07:46:06;38.53;;;34.35;;
54897;SDS011;40800;52.704;6.398;2024-03-07T07:48:32;37.00;;;32.97;;
54897;SDS011;40800;52.704;6.398;2024-03-07T07:50:59;34.55;;;30.40;;
54897;SDS011;40800;52.704;6.398;2024-03-07T07:53:24;37.83;;;32.20;;
54897;SDS011;40800;52.704;6.398;2024-03-07T07:55:50;38.20;;;33.60;;
54897;SDS011;40800;52.704;6.398;2024-03-07T07:58:16;36.97;;;31.92;;
54897;SDS011;40800;52.704;6.398;2024-03-07T08:00:42;36.67;;;32.60;;
54897;SDS011;40800;52.704;6.398;2024-03-07T08:05:36;36.08;;;32.30;;
54897;SDS011;40800;52.704;6.398;2024-03-07T08:10:30;34.10;;;30.40;;
54897;SDS011;40800;52.704;6.398;2024-03-07T08:12:59;37.38;;;32.20;;
54897;SDS011;40800;52.704;6.398;2024-03-07T08:15:26;34.88;;;31.17;;
54897;SDS011;40800;52.704;6.398;2024-03-07T08:20:20;33.97;;;30.38;;
54897;SDS011;40800;52.704;6.398;2024-03-07T08:22:47;34.05;;;30.48;;
54897;SDS011;40800;52.704;6.398;2024-03-07T08:25:16;32.75;;;29.23;;
54897;SDS011;40800;52.704;6.398;2024-03-07T08:27:44;34.05;;;30.40;;
54897;SDS011;40800;52.704;6.398;2024-03-07T08:30:11;35.50;;;31.77;;
54897;SDS011;40800;52.704;6.398;2024-03-07T08:35:06;33.87;;;30.20;;
54897;SDS011;40800;52.704;6.398;2024-03-07T08:37:53;34.92;;;31.20;;
54897;SDS011;40800;52.704;6.398;2024-03-07T08:40:20;35.10;;;31.25;;
54897;SDS011;40800;52.704;6.398;2024-03-07T08:42:47;34.67;;;30.58;;
54897;SDS011;40800;52.704;6.398;2024-03-07T08:45:22;33.58;;;29.98;;
54897;SDS011;40800;52.704;6.398;2024-03-07T08:47:50;33.80;;;30.25;;
54897;SDS011;40800;52.704;6.398;2024-03-07T08:50:19;34.80;;;30.77;;
54897;SDS011;40800;52.704;6.398;2024-03-07T08:52:46;34.83;;;31.15;;
54897;SDS011;40800;52.704;6.398;2024-03-07T08:57:39;33.97;;;30.40;;
54897;SDS011;40800;52.704;6.398;2024-03-07T09:00:06;37.78;;;32.53;;
54897;SDS011;40800;52.704;6.398;2024-03-07T09:02:39;40.10;;;35.90;;
54897;SDS011;40800;52.704;6.398;2024-03-07T09:05:07;36.08;;;32.25;;
54897;SDS011;40800;52.704;6.398;2024-03-07T09:07:35;36.92;;;32.92;;
54897;SDS011;40800;52.704;6.398;2024-03-07T09:10:01;37.13;;;32.97;;
54897;SDS011;40800;52.704;6.398;2024-03-07T09:12:26;38.22;;;34.13;;
54897;SDS011;40800;52.704;6.398;2024-03-07T09:14:52;37.92;;;33.83;;
54897;SDS011;40800;52.704;6.398;2024-03-07T09:17:19;38.72;;;34.00;;
54897;SDS011;40800;52.704;6.398;2024-03-07T09:19:45;37.53;;;33.38;;
54897;SDS011;40800;52.704;6.398;2024-03-07T09:22:11;38.15;;;33.75;;
54897;SDS011;40800;52.704;6.398;2024-03-07T09:24:36;38.47;;;34.13;;
54897;SDS011;40800;52.704;6.398;2024-03-07T09:27:05;40.08;;;34.22;;
54897;SDS011;40800;52.704;6.398;2024-03-07T09:29:31;39.75;;;34.80;;
54897;SDS011;40800;52.704;6.398;2024-03-07T09:31:56;38.35;;;34.03;;
54897;SDS011;40800;52.704;6.398;2024-03-07T09:34:23;40.47;;;34.47;;
54897;SDS011;40800;52.704;6.398;2024-03-07T09:36:50;39.83;;;34.17;;
54897;SDS011;40800;52.704;6.398;2024-03-07T09:39:16;38.40;;;33.38;;
54897;SDS011;40800;52.704;6.398;2024-03-07T09:44:09;35.53;;;30.95;;
54897;SDS011;40800;52.704;6.398;2024-03-07T09:46:39;39.53;;;35.22;;
54897;SDS011;40800;52.704;6.398;2024-03-07T09:51:34;41.93;;;34.17;;
54897;SDS011;40800;52.704;6.398;2024-03-07T09:54:00;40.72;;;35.03;;
54897;SDS011;40800;52.704;6.398;2024-03-07T09:56:27;46.83;;;36.83;;
54897;SDS011;40800;52.704;6.398;2024-03-07T09:58:55;43.80;;;35.38;;
54897;SDS011;40800;52.704;6.398;2024-03-07T10:01:25;43.58;;;34.33;;
54897;SDS011;40800;52.704;6.398;2024-03-07T10:03:52;44.63;;;35.38;;
54897;SDS011;40800;52.704;6.398;2024-03-07T10:06:23;40.70;;;33.60;;
54897;SDS011;40800;52.704;6.398;2024-03-07T10:08:49;45.47;;;34.28;;
54897;SDS011;40800;52.704;6.398;2024-03-07T10:11:16;43.13;;;34.75;;
54897;SDS011;40800;52.704;6.398;2024-03-07T10:13:41;44.13;;;34.40;;
54897;SDS011;40800;52.704;6.398;2024-03-07T10:16:08;48.53;;;36.58;;
54897;SDS011;40800;52.704;6.398;2024-03-07T10:18:42;44.45;;;35.20;;
54897;SDS011;40800;52.704;6.398;2024-03-07T10:21:08;42.60;;;34.80;;
54897;SDS011;40800;52.704;6.398;2024-03-07T10:23:34;43.55;;;34.95;;
54897;SDS011;40800;52.704;6.398;2024-03-07T10:26:00;38.13;;;30.63;;
54897;SDS011;40800;52.704;6.398;2024-03-07T10:28:28;36.97;;;30.58;;
54897;SDS011;40800;52.704;6.398;2024-03-07T10:30:56;37.22;;;31.85;;
54897;SDS011;40800;52.704;6.398;2024-03-07T10:33:25;40.40;;;31.50;;
54897;SDS011;40800;52.704;6.398;2024-03-07T10:35:52;39.22;;;31.90;;
54897;SDS011;40800;52.704;6.398;2024-03-07T10:38:18;37.85;;;31.10;;
54897;SDS011;40800;52.704;6.398;2024-03-07T10:40:45;38.53;;;31.83;;
54897;SDS011;40800;52.704;6.398;2024-03-07T10:43:13;37.42;;;30.67;;
54897;SDS011;40800;52.704;6.398;2024-03-07T10:45:45;37.13;;;30.50;;
54897;SDS011;40800;52.704;6.398;2024-03-07T10:48:12;36.60;;;30.10;;
54897;SDS011;40800;52.704;6.398;2024-03-07T10:59:17;36.40;;;28.45;;
54897;SDS011;40800;52.704;6.398;2024-03-07T11:01:56;37.40;;;29.00;;
54897;SDS011;40800;52.704;6.398;2024-03-07T11:04:22;36.35;;;29.30;;
54897;SDS011;40800;52.704;6.398;2024-03-07T11:06:49;37.13;;;30.17;;
54897;SDS011;40800;52.704;6.398;2024-03-07T11:09:14;39.88;;;32.80;;
54897;SDS011;40800;52.704;6.398;2024-03-07T11:11:48;40.50;;;31.58;;
54897;SDS011;40800;52.704;6.398;2024-03-07T11:14:14;36.72;;;28.95;;
54897;SDS011;40800;52.704;6.398;2024-03-07T11:16:41;35.35;;;29.63;;
54897;SDS011;40800;52.704;6.398;2024-03-07T11:19:17;37.53;;;31.25;;
54897;SDS011;40800;52.704;6.398;2024-03-07T11:21:51;34.85;;;28.48;;
54897;SDS011;40800;52.704;6.398;2024-03-07T11:24:23;37.53;;;28.83;;
54897;SDS011;40800;52.704;6.398;2024-03-07T11:26:57;40.33;;;29.70;;
54897;SDS011;40800;52.704;6.398;2024-03-07T11:32:15;35.90;;;29.13;;
54897;SDS011;40800;52.704;6.398;2024-03-07T11:34:42;35.75;;;29.73;;
54897;SDS011;40800;52.704;6.398;2024-03-07T11:37:16;38.10;;;30.13;;
54897;SDS011;40800;52.704;6.398;2024-03-07T11:39:48;38.83;;;31.15;;
54897;SDS011;40800;52.704;6.398;2024-03-07T11:44:51;35.08;;;28.65;;
54897;SDS011;40800;52.704;6.398;2024-03-07T11:47:18;36.90;;;32.60;;
54897;SDS011;40800;52.704;6.398;2024-03-07T11:49:46;32.85;;;27.27;;
54897;SDS011;40800;52.704;6.398;2024-03-07T11:52:16;34.03;;;27.88;;
54897;SDS011;40800;52.704;6.398;2024-03-07T11:54:43;33.40;;;27.48;;
54897;SDS011;40800;52.704;6.398;2024-03-07T11:57:11;34.72;;;29.70;;
54897;SDS011;40800;52.704;6.398;2024-03-07T11:59:42;32.38;;;28.15;;
54897;SDS011;40800;52.704;6.398;2024-03-07T12:02:13;32.47;;;26.73;;
54897;SDS011;40800;52.704;6.398;2024-03-07T12:04:46;30.90;;;26.38;;
54897;SDS011;40800;52.704;6.398;2024-03-07T12:07:13;29.45;;;25.05;;
54897;SDS011;40800;52.704;6.398;2024-03-07T12:09:42;31.92;;;27.63;;
54897;SDS011;40800;52.704;6.398;2024-03-07T12:12:10;29.92;;;25.80;;
54897;SDS011;40800;52.704;6.398;2024-03-07T12:14:37;30.83;;;25.85;;
54897;SDS011;40800;52.704;6.398;2024-03-07T12:17:04;31.27;;;26.55;;
54897;SDS011;40800;52.704;6.398;2024-03-07T12:21:59;28.85;;;24.25;;
54897;SDS011;40800;52.704;6.398;2024-03-07T12:24:26;32.17;;;25.80;;
54897;SDS011;40800;52.704;6.398;2024-03-07T12:26:52;30.13;;;24.98;;
54897;SDS011;40800;52.704;6.398;2024-03-07T12:29:25;32.90;;;25.98;;
54897;SDS011;40800;52.704;6.398;2024-03-07T12:31:51;33.22;;;26.98;;
54897;SDS011;40800;52.704;6.398;2024-03-07T12:34:16;32.50;;;25.92;;
54897;SDS011;40800;52.704;6.398;2024-03-07T12:36:42;30.40;;;25.65;;
54897;SDS011;40800;52.704;6.398;2024-03-07T12:39:26;32.35;;;26.15;;
54897;SDS011;40800;52.704;6.398;2024-03-07T12:41:56;29.75;;;24.48;;
54897;SDS011;40800;52.704;6.398;2024-03-07T12:44:21;28.33;;;23.92;;
54897;SDS011;40800;52.704;6.398;2024-03-07T12:46:50;31.88;;;26.10;;
54897;SDS011;40800;52.704;6.398;2024-03-07T12:49:21;31.38;;;25.65;;
54897;SDS011;40800;52.704;6.398;2024-03-07T12:51:53;31.27;;;25.60;;
54897;SDS011;40800;52.704;6.398;2024-03-07T12:54:19;30.63;;;24.65;;
54897;SDS011;40800;52.704;6.398;2024-03-07T12:56:45;26.73;;;23.67;;
54897;SDS011;40800;52.704;6.398;2024-03-07T12:59:11;27.35;;;22.48;;
54897;SDS011;40800;52.704;6.398;2024-03-07T13:01:36;28.98;;;25.08;;
54897;SDS011;40800;52.704;6.398;2024-03-07T13:04:09;24.85;;;21.73;;
54897;SDS011;40800;52.704;6.398;2024-03-07T13:06:39;27.83;;;24.00;;
54897;SDS011;40800;52.704;6.398;2024-03-07T13:09:09;25.77;;;22.10;;
54897;SDS011;40800;52.704;6.398;2024-03-07T13:11:37;25.30;;;21.02;;
54897;SDS011;40800;52.704;6.398;2024-03-07T13:14:06;26.05;;;23.13;;
54897;SDS011;40800;52.704;6.398;2024-03-07T13:16:32;23.95;;;20.50;;
54897;SDS011;40800;52.704;6.398;2024-03-07T13:21:25;31.38;;;24.83;;
54897;SDS011;40800;52.704;6.398;2024-03-07T13:26:20;30.55;;;24.25;;
54897;SDS011;40800;52.704;6.398;2024-03-07T13:28:53;31.60;;;26.15;;
54897;SDS011;40800;52.704;6.398;2024-03-07T13:31:19;32.20;;;27.38;;
54897;SDS011;40800;52.704;6.398;2024-03-07T13:33:45;36.00;;;27.50;;
54897;SDS011;40800;52.704;6.398;2024-03-07T13:36:11;36.13;;;25.97;;
54897;SDS011;40800;52.704;6.398;2024-03-07T13:38:39;38.38;;;26.08;;
54897;SDS011;40800;52.704;6.398;2024-03-07T13:41:05;35.58;;;25.08;;
54897;SDS011;40800;52.704;6.398;2024-03-07T13:43:31;38.65;;;26.77;;
54897;SDS011;40800;52.704;6.398;2024-03-07T13:45:58;37.50;;;28.02;;
54897;SDS011;40800;52.704;6.398;2024-03-07T13:48:25;39.17;;;27.53;;
54897;SDS011;40800;52.704;6.398;2024-03-07T13:50:51;38.28;;;28.23;;
54897;SDS011;40800;52.704;6.398;2024-03-07T13:53:19;36.92;;;27.60;;
54897;SDS011;40800;52.704;6.398;2024-03-07T14:06:57;41.58;;;27.45;;
54897;SDS011;40800;52.704;6.398;2024-03-07T14:09:17;35.65;;;26.33;;
54897;SDS011;40800;52.704;6.398;2024-03-07T14:20:30;38.00;;;26.80;;
54897;SDS011;40800;52.704;6.398;2024-03-07T14:31:43;41.78;;;29.25;;
54897;SDS011;40800;52.704;6.398;2024-03-07T14:37:04;39.15;;;28.80;;
54897;SDS011;40800;52.704;6.398;2024-03-07T14:39:36;39.25;;;27.10;;
54897;SDS011;40800;52.704;6.398;2024-03-07T14:42:05;36.75;;;25.15;;
54897;SDS011;40800;52.704;6.398;2024-03-07T14:44:36;33.88;;;24.92;;
54897;SDS011;40800;52.704;6.398;2024-03-07T14:47:05;35.63;;;26.48;;
54897;SDS011;40800;52.704;6.398;2024-03-07T14:49:32;36.08;;;25.80;;
54897;SDS011;40800;52.704;6.398;2024-03-07T14:51:59;37.20;;;26.50;;
54897;SDS011;40800;52.704;6.398;2024-03-07T14:54:25;40.35;;;28.40;;
54897;SDS011;40800;52.704;6.398;2024-03-07T14:56:52;37.33;;;25.00;;
54897;SDS011;40800;52.704;6.398;2024-03-07T14:59:17;37.85;;;27.63;;
54897;SDS011;40800;52.704;6.398;2024-03-07T15:01:43;37.38;;;26.55;;
54897;SDS011;40800;52.704;6.398;2024-03-07T15:04:09;39.53;;;27.03;;
54897;SDS011;40800;52.704;6.398;2024-03-07T15:06:36;36.15;;;27.13;;
54897;SDS011;40800;52.704;6.398;2024-03-07T15:09:03;37.70;;;28.35;;
54897;SDS011;40800;52.704;6.398;2024-03-07T15:11:35;37.00;;;26.20;;
54897;SDS011;40800;52.704;6.398;2024-03-07T15:14:05;37.90;;;28.08;;
54897;SDS011;40800;52.704;6.398;2024-03-07T15:16:33;36.15;;;26.63;;
54897;SDS011;40800;52.704;6.398;2024-03-07T15:19:06;36.33;;;26.52;;
54897;SDS011;40800;52.704;6.398;2024-03-07T15:21:33;35.70;;;25.40;;
54897;SDS011;40800;52.704;6.398;2024-03-07T15:24:05;36.80;;;27.38;;
54897;SDS011;40800;52.704;6.398;2024-03-07T15:26:31;37.15;;;25.52;;
54897;SDS011;40800;52.704;6.398;2024-03-07T15:28:57;37.55;;;27.25;;
54897;SDS011;40800;52.704;6.398;2024-03-07T15:31:24;35.80;;;25.83;;
54897;SDS011;40800;52.704;6.398;2024-03-07T15:33:50;37.13;;;27.35;;
54897;SDS011;40800;52.704;6.398;2024-03-07T15:36:20;39.30;;;27.83;;